sensor_id;sensor_type;location;lat;lon;timestamp;P1;durP1;ratioP1;P2;durP2;ratioP2
47523;SDS011;33253;42.144;25.884;2023-04-23T00:01:09;9.15;;;4.40;;
47523;SDS011;33253;42.144;25.884;2023-04-23T00:03:36;10.05;;;4.28;;
47523;SDS011;33253;42.144;25.884;2023-04-23T00:06:05;7.95;;;4.22;;
47523;SDS011;33253;42.144;25.884;2023-04-23T00:08:36;10.10;;;4.97;;
47523;SDS011;33253;42.144;25.884;2023-04-23T00:11:03;10.80;;;4.68;;
47523;SDS011;33253;42.144;25.884;2023-04-23T00:13:29;9.48;;;4.05;;
47523;SDS011;33253;42.144;25.884;2023-04-23T00:15:55;14.73;;;4.65;;
47523;SDS011;33253;42.144;25.884;2023-04-23T00:18:20;8.60;;;4.30;;
47523;SDS011;33253;42.144;25.884;2023-04-23T00:20:46;9.50;;;4.55;;
47523;SDS011;33253;42.144;25.884;2023-04-23T00:23:11;9.43;;;4.50;;
47523;SDS011;33253;42.144;25.884;2023-04-23T00:25:38;7.75;;;4.18;;
47523;SDS011;33253;42.144;25.884;2023-04-23T00:28:03;8.00;;;4.13;;
47523;SDS011;33253;42.144;25.884;2023-04-23T00:30:29;6.93;;;4.50;;
47523;SDS011;33253;42.144;25.884;2023-04-23T00:32:54;9.70;;;4.63;;
47523;SDS011;33253;42.144;25.884;2023-04-23T00:35:20;10.23;;;4.28;;
47523;SDS011;33253;42.144;25.884;2023-04-23T00:37:45;9.95;;;4.90;;
47523;SDS011;33253;42.144;25.884;2023-04-23T00:40:11;11.57;;;4.50;;
47523;SDS011;33253;42.144;25.884;2023-04-23T00:42:38;9.98;;;4.32;;
47523;SDS011;33253;42.144;25.884;2023-04-23T00:45:07;8.00;;;4.35;;
47523;SDS011;33253;42.144;25.884;2023-04-23T00:47:33;10.80;;;4.43;;
47523;SDS011;33253;42.144;25.884;2023-04-23T00:50:00;11.32;;;4.93;;
47523;SDS011;33253;42.144;25.884;2023-04-23T00:52:27;7.65;;;4.60;;
47523;SDS011;33253;42.144;25.884;2023-04-23T00:54:53;13.10;;;4.82;;
47523;SDS011;33253;42.144;25.884;2023-04-23T00:57:19;10.43;;;4.60;;
47523;SDS011;33253;42.144;25.884;2023-04-23T00:59:46;10.48;;;4.97;;
47523;SDS011;33253;42.144;25.884;2023-04-23T01:02:12;10.52;;;4.85;;
47523;SDS011;33253;42.144;25.884;2023-04-23T01:04:38;8.55;;;4.75;;
47523;SDS011;33253;42.144;25.884;2023-04-23T01:07:07;15.57;;;5.65;;
47523;SDS011;33253;42.144;25.884;2023-04-23T01:09:33;9.77;;;4.93;;
47523;SDS011;33253;42.144;25.884;2023-04-23T01:11:58;13.18;;;5.05;;
47523;SDS011;33253;42.144;25.884;2023-04-23T01:14:26;9.88;;;5.57;;
47523;SDS011;33253;42.144;25.884;2023-04-23T01:16:52;8.05;;;5.10;;
47523;SDS011;33253;42.144;25.884;2023-04-23T01:19:17;9.20;;;4.97;;
47523;SDS011;33253;42.144;25.884;2023-04-23T01:21:43;11.90;;;5.13;;
47523;SDS011;33253;42.144;25.884;2023-04-23T01:24:10;12.23;;;5.32;;
47523;SDS011;33253;42.144;25.884;2023-04-23T01:26:35;10.13;;;5.32;;
47523;SDS011;33253;42.144;25.884;2023-04-23T01:29:01;7.55;;;4.53;;
47523;SDS011;33253;42.144;25.884;2023-04-23T01:31:27;11.73;;;5.15;;
47523;SDS011;33253;42.144;25.884;2023-04-23T01:33:54;10.50;;;5.75;;
47523;SDS011;33253;42.144;25.884;2023-04-23T01:36:21;7.53;;;4.97;;
47523;SDS011;33253;42.144;25.884;2023-04-23T01:38:47;8.65;;;5.43;;
47523;SDS011;33253;42.144;25.884;2023-04-23T01:41:13;11.05;;;5.30;;
47523;SDS011;33253;42.144;25.884;2023-04-23T01:43:40;12.93;;;5.35;;
47523;SDS011;33253;42.144;25.884;2023-04-23T01:46:06;9.13;;;5.18;;
47523;SDS011;33253;42.144;25.884;2023-04-23T01:48:32;10.02;;;5.25;;
47523;SDS011;33253;42.144;25.884;2023-04-23T01:50:57;6.90;;;4.75;;
47523;SDS011;33253;42.144;25.884;2023-04-23T01:53:24;9.95;;;5.05;;
47523;SDS011;33253;42.144;25.884;2023-04-23T01:55:50;7.97;;;5.32;;
47523;SDS011;33253;42.144;25.884;2023-04-23T01:58:16;8.93;;;5.13;;
47523;SDS011;33253;42.144;25.884;2023-04-23T02:00:43;9.50;;;5.20;;
47523;SDS011;33253;42.144;25.884;2023-04-23T02:03:08;10.07;;;4.85;;
47523;SDS011;33253;42.144;25.884;2023-04-23T02:05:34;8.63;;;5.15;;
47523;SDS011;33253;42.144;25.884;2023-04-23T02:08:00;7.22;;;4.97;;
47523;SDS011;33253;42.144;25.884;2023-04-23T02:10:27;11.10;;;5.63;;
47523;SDS011;33253;42.144;25.884;2023-04-23T02:12:53;10.65;;;5.57;;
47523;SDS011;33253;42.144;25.884;2023-04-23T02:15:18;9.05;;;5.38;;
47523;SDS011;33253;42.144;25.884;2023-04-23T02:17:45;14.13;;;5.88;;
47523;SDS011;33253;42.144;25.884;2023-04-23T02:20:10;8.57;;;6.30;;
47523;SDS011;33253;42.144;25.884;2023-04-23T02:22:40;10.57;;;6.07;;
47523;SDS011;33253;42.144;25.884;2023-04-23T02:25:06;9.50;;;5.40;;
47523;SDS011;33253;42.144;25.884;2023-04-23T02:27:32;9.88;;;5.70;;
47523;SDS011;33253;42.144;25.884;2023-04-23T02:29:58;7.85;;;5.13;;
47523;SDS011;33253;42.144;25.884;2023-04-23T02:32:24;12.18;;;5.80;;
47523;SDS011;33253;42.144;25.884;2023-04-23T02:34:50;9.57;;;5.95;;
47523;SDS011;33253;42.144;25.884;2023-04-23T02:37:16;13.43;;;5.88;;
47523;SDS011;33253;42.144;25.884;2023-04-23T02:39:41;9.43;;;5.47;;
47523;SDS011;33253;42.144;25.884;2023-04-23T02:42:07;9.20;;;5.70;;
47523;SDS011;33253;42.144;25.884;2023-04-23T02:44:33;19.65;;;5.90;;
47523;SDS011;33253;42.144;25.884;2023-04-23T02:46:58;9.60;;;5.57;;
47523;SDS011;33253;42.144;25.884;2023-04-23T02:49:24;10.15;;;5.50;;
47523;SDS011;33253;42.144;25.884;2023-04-23T02:51:50;9.43;;;6.30;;
47523;SDS011;33253;42.144;25.884;2023-04-23T02:54:15;12.85;;;6.22;;
47523;SDS011;33253;42.144;25.884;2023-04-23T02:56:41;9.02;;;5.70;;
47523;SDS011;33253;42.144;25.884;2023-04-23T02:59:06;7.60;;;5.70;;
47523;SDS011;33253;42.144;25.884;2023-04-23T03:01:32;10.98;;;6.20;;
47523;SDS011;33253;42.144;25.884;2023-04-23T03:03:58;8.63;;;5.43;;
47523;SDS011;33253;42.144;25.884;2023-04-23T03:06:23;11.98;;;5.60;;
47523;SDS011;33253;42.144;25.884;2023-04-23T03:08:49;8.55;;;5.38;;
47523;SDS011;33253;42.144;25.884;2023-04-23T03:11:15;8.50;;;5.50;;
47523;SDS011;33253;42.144;25.884;2023-04-23T03:13:40;11.07;;;6.32;;
47523;SDS011;33253;42.144;25.884;2023-04-23T03:16:06;11.50;;;5.95;;
47523;SDS011;33253;42.144;25.884;2023-04-23T03:18:31;11.77;;;5.55;;
47523;SDS011;33253;42.144;25.884;2023-04-23T03:20:57;8.52;;;5.93;;
47523;SDS011;33253;42.144;25.884;2023-04-23T03:23:23;9.63;;;5.60;;
47523;SDS011;33253;42.144;25.884;2023-04-23T03:25:48;11.98;;;6.35;;
47523;SDS011;33253;42.144;25.884;2023-04-23T03:28:14;10.38;;;5.53;;
47523;SDS011;33253;42.144;25.884;2023-04-23T03:30:39;10.77;;;6.50;;
47523;SDS011;33253;42.144;25.884;2023-04-23T03:33:05;14.18;;;5.53;;
47523;SDS011;33253;42.144;25.884;2023-04-23T03:35:30;9.88;;;5.47;;
47523;SDS011;33253;42.144;25.884;2023-04-23T03:37:55;9.38;;;5.53;;
47523;SDS011;33253;42.144;25.884;2023-04-23T03:40:21;11.18;;;6.25;;
47523;SDS011;33253;42.144;25.884;2023-04-23T03:42:46;8.75;;;6.28;;
47523;SDS011;33253;42.144;25.884;2023-04-23T03:45:13;10.55;;;5.15;;
47523;SDS011;33253;42.144;25.884;2023-04-23T03:47:39;12.00;;;5.60;;
47523;SDS011;33253;42.144;25.884;2023-04-23T03:50:05;9.55;;;5.30;;
47523;SDS011;33253;42.144;25.884;2023-04-23T03:52:31;14.63;;;6.10;;
47523;SDS011;33253;42.144;25.884;2023-04-23T03:54:57;9.95;;;5.88;;
47523;SDS011;33253;42.144;25.884;2023-04-23T03:57:22;11.80;;;6.28;;
47523;SDS011;33253;42.144;25.884;2023-04-23T03:59:48;9.07;;;5.38;;
47523;SDS011;33253;42.144;25.884;2023-04-23T04:02:13;8.18;;;6.28;;
47523;SDS011;33253;42.144;25.884;2023-04-23T04:04:38;13.15;;;6.32;;
47523;SDS011;33253;42.144;25.884;2023-04-23T04:07:04;9.68;;;6.07;;
47523;SDS011;33253;42.144;25.884;2023-04-23T04:09:31;11.55;;;5.85;;
47523;SDS011;33253;42.144;25.884;2023-04-23T04:11:56;9.18;;;6.03;;
47523;SDS011;33253;42.144;25.884;2023-04-23T04:14:22;10.55;;;6.55;;
47523;SDS011;33253;42.144;25.884;2023-04-23T04:16:47;10.85;;;6.55;;
47523;SDS011;33253;42.144;25.884;2023-04-23T04:19:13;11.77;;;6.07;;
47523;SDS011;33253;42.144;25.884;2023-04-23T04:21:39;9.38;;;6.38;;
47523;SDS011;33253;42.144;25.884;2023-04-23T04:24:04;13.88;;;6.78;;
47523;SDS011;33253;42.144;25.884;2023-04-23T04:26:30;13.82;;;6.15;;
47523;SDS011;33253;42.144;25.884;2023-04-23T04:28:59;11.10;;;6.20;;
47523;SDS011;33253;42.144;25.884;2023-04-23T04:33:53;11.23;;;6.15;;
47523;SDS011;33253;42.144;25.884;2023-04-23T04:36:19;10.13;;;6.20;;
47523;SDS011;33253;42.144;25.884;2023-04-23T04:38:45;10.68;;;6.00;;
47523;SDS011;33253;42.144;25.884;2023-04-23T04:41:11;14.10;;;6.60;;
47523;SDS011;33253;42.144;25.884;2023-04-23T04:43:37;15.73;;;7.05;;
47523;SDS011;33253;42.144;25.884;2023-04-23T04:46:03;23.48;;;15.68;;
47523;SDS011;33253;42.144;25.884;2023-04-23T04:48:29;21.88;;;14.52;;
47523;SDS011;33253;42.144;25.884;2023-04-23T04:50:54;15.85;;;10.55;;
47523;SDS011;33253;42.144;25.884;2023-04-23T04:53:20;13.98;;;9.00;;
47523;SDS011;33253;42.144;25.884;2023-04-23T04:55:46;15.40;;;8.95;;
47523;SDS011;33253;42.144;25.884;2023-04-23T04:58:11;12.70;;;8.13;;
47523;SDS011;33253;42.144;25.884;2023-04-23T05:00:38;18.52;;;8.65;;
47523;SDS011;33253;42.144;25.884;2023-04-23T05:03:03;17.65;;;8.57;;
47523;SDS011;33253;42.144;25.884;2023-04-23T05:05:31;15.52;;;8.43;;
47523;SDS011;33253;42.144;25.884;2023-04-23T05:07:57;15.02;;;7.88;;
47523;SDS011;33253;42.144;25.884;2023-04-23T05:10:28;15.15;;;7.93;;
47523;SDS011;33253;42.144;25.884;2023-04-23T05:12:57;13.20;;;8.45;;
47523;SDS011;33253;42.144;25.884;2023-04-23T05:15:22;11.88;;;7.05;;
47523;SDS011;33253;42.144;25.884;2023-04-23T05:17:48;12.30;;;7.60;;
47523;SDS011;33253;42.144;25.884;2023-04-23T05:20:17;14.20;;;7.30;;
47523;SDS011;33253;42.144;25.884;2023-04-23T05:22:42;15.13;;;7.78;;
47523;SDS011;33253;42.144;25.884;2023-04-23T05:25:08;12.07;;;7.80;;
47523;SDS011;33253;42.144;25.884;2023-04-23T05:27:36;13.75;;;8.02;;
47523;SDS011;33253;42.144;25.884;2023-04-23T05:30:02;15.82;;;7.10;;
47523;SDS011;33253;42.144;25.884;2023-04-23T05:32:30;11.70;;;7.28;;
47523;SDS011;33253;42.144;25.884;2023-04-23T05:34:56;11.23;;;6.68;;
47523;SDS011;33253;42.144;25.884;2023-04-23T05:37:21;11.55;;;7.03;;
47523;SDS011;33253;42.144;25.884;2023-04-23T05:39:47;17.25;;;7.93;;
47523;SDS011;33253;42.144;25.884;2023-04-23T05:42:12;18.20;;;8.05;;
47523;SDS011;33253;42.144;25.884;2023-04-23T05:44:38;9.68;;;7.20;;
47523;SDS011;33253;42.144;25.884;2023-04-23T05:47:05;12.32;;;6.60;;
47523;SDS011;33253;42.144;25.884;2023-04-23T05:49:31;14.77;;;6.95;;
47523;SDS011;33253;42.144;25.884;2023-04-23T05:51:56;17.10;;;6.28;;
47523;SDS011;33253;42.144;25.884;2023-04-23T05:54:23;19.48;;;6.95;;
47523;SDS011;33253;42.144;25.884;2023-04-23T05:56:48;10.40;;;5.50;;
47523;SDS011;33253;42.144;25.884;2023-04-23T05:59:14;12.27;;;6.20;;
47523;SDS011;33253;42.144;25.884;2023-04-23T06:01:39;10.48;;;5.35;;
47523;SDS011;33253;42.144;25.884;2023-04-23T06:04:06;9.35;;;5.68;;
47523;SDS011;33253;42.144;25.884;2023-04-23T06:06:31;11.15;;;5.68;;
47523;SDS011;33253;42.144;25.884;2023-04-23T06:08:57;13.00;;;5.30;;
47523;SDS011;33253;42.144;25.884;2023-04-23T06:11:22;9.10;;;4.70;;
47523;SDS011;33253;42.144;25.884;2023-04-23T06:13:48;10.90;;;4.22;;
47523;SDS011;33253;42.144;25.884;2023-04-23T06:16:13;9.07;;;4.80;;
47523;SDS011;33253;42.144;25.884;2023-04-23T06:18:39;14.35;;;4.70;;
47523;SDS011;33253;42.144;25.884;2023-04-23T06:21:04;11.50;;;4.82;;
47523;SDS011;33253;42.144;25.884;2023-04-23T06:23:31;8.93;;;4.70;;
47523;SDS011;33253;42.144;25.884;2023-04-23T06:25:57;10.13;;;4.10;;
47523;SDS011;33253;42.144;25.884;2023-04-23T06:28:22;11.57;;;3.75;;
47523;SDS011;33253;42.144;25.884;2023-04-23T06:30:48;10.32;;;4.28;;
47523;SDS011;33253;42.144;25.884;2023-04-23T06:33:14;10.23;;;4.43;;
47523;SDS011;33253;42.144;25.884;2023-04-23T06:35:39;10.10;;;4.38;;
47523;SDS011;33253;42.144;25.884;2023-04-23T06:38:05;9.77;;;4.28;;
47523;SDS011;33253;42.144;25.884;2023-04-23T06:40:31;7.88;;;4.25;;
47523;SDS011;33253;42.144;25.884;2023-04-23T06:42:58;11.23;;;3.92;;
47523;SDS011;33253;42.144;25.884;2023-04-23T06:45:23;11.07;;;4.35;;
47523;SDS011;33253;42.144;25.884;2023-04-23T06:47:49;8.52;;;4.18;;
47523;SDS011;33253;42.144;25.884;2023-04-23T06:50:15;9.90;;;4.80;;
47523;SDS011;33253;42.144;25.884;2023-04-23T06:52:40;10.80;;;4.32;;
47523;SDS011;33253;42.144;25.884;2023-04-23T06:55:07;11.90;;;4.50;;
47523;SDS011;33253;42.144;25.884;2023-04-23T06:57:33;7.63;;;4.00;;
47523;SDS011;33253;42.144;25.884;2023-04-23T06:59:58;9.70;;;4.97;;
47523;SDS011;33253;42.144;25.884;2023-04-23T07:02:24;9.48;;;5.15;;
47523;SDS011;33253;42.144;25.884;2023-04-23T07:04:50;10.32;;;3.90;;
47523;SDS011;33253;42.144;25.884;2023-04-23T07:07:15;10.48;;;4.20;;
47523;SDS011;33253;42.144;25.884;2023-04-23T07:09:41;9.82;;;3.95;;
47523;SDS011;33253;42.144;25.884;2023-04-23T07:12:06;12.20;;;4.20;;
47523;SDS011;33253;42.144;25.884;2023-04-23T07:14:32;9.35;;;4.57;;
47523;SDS011;33253;42.144;25.884;2023-04-23T07:16:57;10.18;;;3.90;;
47523;SDS011;33253;42.144;25.884;2023-04-23T07:19:23;8.98;;;4.13;;
47523;SDS011;33253;42.144;25.884;2023-04-23T07:21:51;10.20;;;4.05;;
47523;SDS011;33253;42.144;25.884;2023-04-23T07:24:17;9.38;;;3.95;;
47523;SDS011;33253;42.144;25.884;2023-04-23T07:26:43;9.15;;;3.80;;
47523;SDS011;33253;42.144;25.884;2023-04-23T07:29:09;9.93;;;4.05;;
47523;SDS011;33253;42.144;25.884;2023-04-23T07:31:35;13.68;;;4.35;;
47523;SDS011;33253;42.144;25.884;2023-04-23T07:34:01;9.25;;;4.25;;
47523;SDS011;33253;42.144;25.884;2023-04-23T07:36:27;8.55;;;3.90;;
47523;SDS011;33253;42.144;25.884;2023-04-23T07:38:52;11.68;;;4.57;;
47523;SDS011;33253;42.144;25.884;2023-04-23T07:41:18;16.98;;;4.25;;
47523;SDS011;33253;42.144;25.884;2023-04-23T07:43:44;15.60;;;4.30;;
47523;SDS011;33253;42.144;25.884;2023-04-23T07:46:09;11.75;;;3.95;;
47523;SDS011;33253;42.144;25.884;2023-04-23T07:48:35;9.73;;;4.20;;
47523;SDS011;33253;42.144;25.884;2023-04-23T07:51:00;16.88;;;4.47;;
47523;SDS011;33253;42.144;25.884;2023-04-23T07:53:26;15.43;;;4.75;;
47523;SDS011;33253;42.144;25.884;2023-04-23T07:55:53;15.35;;;4.30;;
47523;SDS011;33253;42.144;25.884;2023-04-23T07:58:22;10.93;;;4.03;;
47523;SDS011;33253;42.144;25.884;2023-04-23T08:00:48;10.55;;;4.30;;
47523;SDS011;33253;42.144;25.884;2023-04-23T08:03:14;10.80;;;4.38;;
47523;SDS011;33253;42.144;25.884;2023-04-23T08:05:40;11.85;;;4.57;;
47523;SDS011;33253;42.144;25.884;2023-04-23T08:08:06;12.52;;;4.47;;
47523;SDS011;33253;42.144;25.884;2023-04-23T08:10:32;15.60;;;4.60;;
47523;SDS011;33253;42.144;25.884;2023-04-23T08:13:01;15.45;;;5.43;;
47523;SDS011;33253;42.144;25.884;2023-04-23T08:15:27;9.40;;;4.18;;
47523;SDS011;33253;42.144;25.884;2023-04-23T08:17:52;11.15;;;4.35;;
47523;SDS011;33253;42.144;25.884;2023-04-23T08:20:18;7.18;;;4.22;;
47523;SDS011;33253;42.144;25.884;2023-04-23T08:22:43;13.90;;;4.15;;
47523;SDS011;33253;42.144;25.884;2023-04-23T08:25:09;13.55;;;3.72;;
47523;SDS011;33253;42.144;25.884;2023-04-23T08:27:36;9.60;;;3.08;;
47523;SDS011;33253;42.144;25.884;2023-04-23T08:30:02;8.05;;;3.10;;
47523;SDS011;33253;42.144;25.884;2023-04-23T08:32:28;6.85;;;3.38;;
47523;SDS011;33253;42.144;25.884;2023-04-23T08:34:55;14.60;;;3.58;;
47523;SDS011;33253;42.144;25.884;2023-04-23T08:37:20;8.43;;;3.70;;
47523;SDS011;33253;42.144;25.884;2023-04-23T08:39:46;10.70;;;4.47;;
47523;SDS011;33253;42.144;25.884;2023-04-23T08:42:14;14.50;;;4.53;;
47523;SDS011;33253;42.144;25.884;2023-04-23T08:44:47;9.80;;;3.85;;
47523;SDS011;33253;42.144;25.884;2023-04-23T08:47:13;11.88;;;3.50;;
47523;SDS011;33253;42.144;25.884;2023-04-23T08:49:42;13.88;;;3.70;;
47523;SDS011;33253;42.144;25.884;2023-04-23T08:52:18;9.55;;;3.80;;
47523;SDS011;33253;42.144;25.884;2023-04-23T08:54:59;9.93;;;3.25;;
47523;SDS011;33253;42.144;25.884;2023-04-23T08:57:26;12.45;;;3.60;;
47523;SDS011;33253;42.144;25.884;2023-04-23T08:59:52;11.70;;;3.95;;
47523;SDS011;33253;42.144;25.884;2023-04-23T09:02:17;14.75;;;4.45;;
47523;SDS011;33253;42.144;25.884;2023-04-23T09:04:46;7.30;;;3.63;;
47523;SDS011;33253;42.144;25.884;2023-04-23T09:07:12;10.27;;;3.90;;
47523;SDS011;33253;42.144;25.884;2023-04-23T09:09:39;10.73;;;3.28;;
47523;SDS011;33253;42.144;25.884;2023-04-23T09:12:05;9.93;;;3.95;;
47523;SDS011;33253;42.144;25.884;2023-04-23T09:14:32;8.82;;;3.38;;
47523;SDS011;33253;42.144;25.884;2023-04-23T09:16:58;7.20;;;3.05;;
47523;SDS011;33253;42.144;25.884;2023-04-23T09:19:25;10.43;;;3.72;;
47523;SDS011;33253;42.144;25.884;2023-04-23T09:24:23;9.98;;;3.22;;
47523;SDS011;33253;42.144;25.884;2023-04-23T09:26:49;8.90;;;3.63;;
47523;SDS011;33253;42.144;25.884;2023-04-23T09:29:19;9.55;;;3.90;;
47523;SDS011;33253;42.144;25.884;2023-04-23T09:31:47;9.25;;;3.75;;
47523;SDS011;33253;42.144;25.884;2023-04-23T09:34:20;10.85;;;3.50;;
47523;SDS011;33253;42.144;25.884;2023-04-23T09:36:48;12.13;;;3.72;;
47523;SDS011;33253;42.144;25.884;2023-04-23T09:39:15;8.43;;;3.30;;
47523;SDS011;33253;42.144;25.884;2023-04-23T09:41:42;10.85;;;3.72;;
47523;SDS011;33253;42.144;25.884;2023-04-23T09:44:10;12.10;;;3.95;;
47523;SDS011;33253;42.144;25.884;2023-04-23T09:46:41;5.60;;;3.00;;
47523;SDS011;33253;42.144;25.884;2023-04-23T09:49:08;8.57;;;3.60;;
47523;SDS011;33253;42.144;25.884;2023-04-23T09:51:39;7.28;;;3.20;;
47523;SDS011;33253;42.144;25.884;2023-04-23T09:54:12;10.65;;;3.92;;
47523;SDS011;33253;42.144;25.884;2023-04-23T09:56:48;8.00;;;3.13;;
47523;SDS011;33253;42.144;25.884;2023-04-23T09:59:24;9.85;;;3.67;;
47523;SDS011;33253;42.144;25.884;2023-04-23T10:01:51;10.40;;;3.28;;
47523;SDS011;33253;42.144;25.884;2023-04-23T10:04:20;10.32;;;3.42;;
47523;SDS011;33253;42.144;25.884;2023-04-23T10:06:54;12.52;;;3.38;;
47523;SDS011;33253;42.144;25.884;2023-04-23T10:09:21;10.88;;;3.15;;
47523;SDS011;33253;42.144;25.884;2023-04-23T10:11:55;8.75;;;3.25;;
47523;SDS011;33253;42.144;25.884;2023-04-23T10:14:23;12.98;;;3.38;;
47523;SDS011;33253;42.144;25.884;2023-04-23T10:16:51;9.85;;;3.22;;
47523;SDS011;33253;42.144;25.884;2023-04-23T10:19:20;8.68;;;3.40;;
47523;SDS011;33253;42.144;25.884;2023-04-23T10:24:40;6.07;;;2.95;;
47523;SDS011;33253;42.144;25.884;2023-04-23T10:27:11;8.33;;;3.03;;
47523;SDS011;33253;42.144;25.884;2023-04-23T10:32:06;8.60;;;3.13;;
47523;SDS011;33253;42.144;25.884;2023-04-23T10:34:32;9.55;;;3.10;;
47523;SDS011;33253;42.144;25.884;2023-04-23T10:36:58;10.05;;;3.25;;
47523;SDS011;33253;42.144;25.884;2023-04-23T10:39:29;8.98;;;3.13;;
47523;SDS011;33253;42.144;25.884;2023-04-23T10:42:00;9.27;;;2.97;;
47523;SDS011;33253;42.144;25.884;2023-04-23T10:47:02;9.90;;;3.13;;
47523;SDS011;33253;42.144;25.884;2023-04-23T10:49:29;15.60;;;3.95;;
47523;SDS011;33253;42.144;25.884;2023-04-23T10:51:59;14.55;;;4.10;;
47523;SDS011;33253;42.144;25.884;2023-04-23T10:54:32;12.45;;;3.55;;
47523;SDS011;33253;42.144;25.884;2023-04-23T10:56:59;11.70;;;3.92;;
47523;SDS011;33253;42.144;25.884;2023-04-23T10:59:27;9.57;;;3.42;;
47523;SDS011;33253;42.144;25.884;2023-04-23T11:04:26;8.25;;;3.72;;
47523;SDS011;33253;42.144;25.884;2023-04-23T11:09:40;8.27;;;3.42;;
47523;SDS011;33253;42.144;25.884;2023-04-23T11:12:12;9.93;;;3.47;;
47523;SDS011;33253;42.144;25.884;2023-04-23T11:15:16;10.32;;;3.35;;
47523;SDS011;33253;42.144;25.884;2023-04-23T11:20:09;8.43;;;3.50;;
47523;SDS011;33253;42.144;25.884;2023-04-23T11:22:43;11.38;;;3.50;;
47523;SDS011;33253;42.144;25.884;2023-04-23T11:25:13;8.38;;;3.15;;
47523;SDS011;33253;42.144;25.884;2023-04-23T11:27:52;9.55;;;3.08;;
47523;SDS011;33253;42.144;25.884;2023-04-23T11:30:22;8.18;;;3.15;;
47523;SDS011;33253;42.144;25.884;2023-04-23T11:32:51;6.55;;;3.25;;
47523;SDS011;33253;42.144;25.884;2023-04-23T11:35:18;7.35;;;3.33;;
47523;SDS011;33253;42.144;25.884;2023-04-23T11:37:45;7.93;;;3.15;;
47523;SDS011;33253;42.144;25.884;2023-04-23T11:40:15;10.50;;;3.85;;
47523;SDS011;33253;42.144;25.884;2023-04-23T11:42:47;8.23;;;3.25;;
47523;SDS011;33253;42.144;25.884;2023-04-23T11:45:23;7.03;;;3.72;;
47523;SDS011;33253;42.144;25.884;2023-04-23T11:47:51;6.95;;;3.20;;
47523;SDS011;33253;42.144;25.884;2023-04-23T11:50:30;8.55;;;3.58;;
47523;SDS011;33253;42.144;25.884;2023-04-23T11:53:04;7.85;;;3.45;;
47523;SDS011;33253;42.144;25.884;2023-04-23T11:55:31;10.35;;;3.80;;
47523;SDS011;33253;42.144;25.884;2023-04-23T11:57:56;6.60;;;3.03;;
47523;SDS011;33253;42.144;25.884;2023-04-23T12:00:23;7.05;;;3.20;;
47523;SDS011;33253;42.144;25.884;2023-04-23T12:05:26;6.40;;;3.58;;
47523;SDS011;33253;42.144;25.884;2023-04-23T12:07:53;6.57;;;3.22;;
47523;SDS011;33253;42.144;25.884;2023-04-23T12:10:19;11.23;;;3.25;;
47523;SDS011;33253;42.144;25.884;2023-04-23T12:12:51;6.28;;;3.10;;
47523;SDS011;33253;42.144;25.884;2023-04-23T12:15:17;7.88;;;3.40;;
47523;SDS011;33253;42.144;25.884;2023-04-23T12:17:47;7.30;;;2.92;;
47523;SDS011;33253;42.144;25.884;2023-04-23T12:20:18;7.93;;;3.17;;
47523;SDS011;33253;42.144;25.884;2023-04-23T12:22:45;8.30;;;3.58;;
47523;SDS011;33253;42.144;25.884;2023-04-23T12:25:10;6.28;;;3.25;;
47523;SDS011;33253;42.144;25.884;2023-04-23T12:27:39;4.80;;;2.95;;
47523;SDS011;33253;42.144;25.884;2023-04-23T12:30:07;5.65;;;3.20;;
47523;SDS011;33253;42.144;25.884;2023-04-23T12:32:33;9.88;;;3.75;;
47523;SDS011;33253;42.144;25.884;2023-04-23T12:34:59;7.03;;;3.08;;
47523;SDS011;33253;42.144;25.884;2023-04-23T12:37:25;5.70;;;2.90;;
47523;SDS011;33253;42.144;25.884;2023-04-23T12:39:52;6.88;;;3.25;;
47523;SDS011;33253;42.144;25.884;2023-04-23T12:42:20;6.80;;;3.38;;
47523;SDS011;33253;42.144;25.884;2023-04-23T12:44:46;7.28;;;3.40;;
47523;SDS011;33253;42.144;25.884;2023-04-23T12:47:12;6.80;;;3.25;;
47523;SDS011;33253;42.144;25.884;2023-04-23T12:49:39;6.68;;;3.15;;
47523;SDS011;33253;42.144;25.884;2023-04-23T12:52:06;7.85;;;3.50;;
47523;SDS011;33253;42.144;25.884;2023-04-23T12:54:33;7.07;;;3.10;;
47523;SDS011;33253;42.144;25.884;2023-04-23T12:57:03;7.38;;;3.35;;
47523;SDS011;33253;42.144;25.884;2023-04-23T12:59:30;11.52;;;3.50;;
47523;SDS011;33253;42.144;25.884;2023-04-23T13:01:56;8.65;;;3.35;;
47523;SDS011;33253;42.144;25.884;2023-04-23T13:04:25;7.45;;;2.95;;
47523;SDS011;33253;42.144;25.884;2023-04-23T13:06:52;6.60;;;3.05;;
47523;SDS011;33253;42.144;25.884;2023-04-23T13:09:18;6.32;;;2.90;;
47523;SDS011;33253;42.144;25.884;2023-04-23T13:11:45;15.88;;;3.42;;
47523;SDS011;33253;42.144;25.884;2023-04-23T13:14:13;7.63;;;3.53;;
47523;SDS011;33253;42.144;25.884;2023-04-23T13:16:40;6.65;;;3.03;;
47523;SDS011;33253;42.144;25.884;2023-04-23T13:19:05;6.10;;;3.20;;
47523;SDS011;33253;42.144;25.884;2023-04-23T13:21:31;4.60;;;2.83;;
47523;SDS011;33253;42.144;25.884;2023-04-23T13:23:56;4.75;;;2.63;;
47523;SDS011;33253;42.144;25.884;2023-04-23T13:26:22;7.85;;;3.47;;
47523;SDS011;33253;42.144;25.884;2023-04-23T13:28:47;8.27;;;2.97;;
47523;SDS011;33253;42.144;25.884;2023-04-23T13:31:14;4.28;;;2.78;;
47523;SDS011;33253;42.144;25.884;2023-04-23T13:33:40;5.53;;;3.08;;
47523;SDS011;33253;42.144;25.884;2023-04-23T13:36:06;8.13;;;3.22;;
47523;SDS011;33253;42.144;25.884;2023-04-23T13:38:32;5.07;;;2.83;;
47523;SDS011;33253;42.144;25.884;2023-04-23T13:40:58;9.52;;;3.10;;
47523;SDS011;33253;42.144;25.884;2023-04-23T13:43:23;7.85;;;3.03;;
47523;SDS011;33253;42.144;25.884;2023-04-23T13:45:49;7.55;;;3.15;;
47523;SDS011;33253;42.144;25.884;2023-04-23T13:48:15;7.90;;;2.90;;
47523;SDS011;33253;42.144;25.884;2023-04-23T13:50:43;9.60;;;2.70;;
47523;SDS011;33253;42.144;25.884;2023-04-23T13:53:10;7.20;;;2.95;;
47523;SDS011;33253;42.144;25.884;2023-04-23T13:55:36;4.47;;;2.90;;
47523;SDS011;33253;42.144;25.884;2023-04-23T13:58:02;5.57;;;2.78;;
47523;SDS011;33253;42.144;25.884;2023-04-23T14:00:30;5.93;;;2.80;;
47523;SDS011;33253;42.144;25.884;2023-04-23T14:02:55;8.07;;;2.92;;
47523;SDS011;33253;42.144;25.884;2023-04-23T14:05:21;9.88;;;3.17;;
47523;SDS011;33253;42.144;25.884;2023-04-23T14:07:46;6.05;;;3.03;;
47523;SDS011;33253;42.144;25.884;2023-04-23T14:10:12;6.05;;;2.95;;
47523;SDS011;33253;42.144;25.884;2023-04-23T14:12:39;7.18;;;3.05;;
47523;SDS011;33253;42.144;25.884;2023-04-23T14:15:05;4.97;;;2.72;;
47523;SDS011;33253;42.144;25.884;2023-04-23T14:17:32;6.05;;;3.33;;
47523;SDS011;33253;42.144;25.884;2023-04-23T14:19:58;6.40;;;2.88;;
47523;SDS011;33253;42.144;25.884;2023-04-23T14:22:24;5.82;;;2.65;;
47523;SDS011;33253;42.144;25.884;2023-04-23T14:24:50;5.32;;;2.50;;
47523;SDS011;33253;42.144;25.884;2023-04-23T14:27:21;5.45;;;2.80;;
47523;SDS011;33253;42.144;25.884;2023-04-23T14:29:51;5.90;;;2.63;;
47523;SDS011;33253;42.144;25.884;2023-04-23T14:32:22;5.53;;;2.67;;
47523;SDS011;33253;42.144;25.884;2023-04-23T14:34:48;6.05;;;3.05;;
47523;SDS011;33253;42.144;25.884;2023-04-23T14:37:14;7.18;;;3.03;;
47523;SDS011;33253;42.144;25.884;2023-04-23T14:39:41;4.80;;;2.63;;
47523;SDS011;33253;42.144;25.884;2023-04-23T14:42:07;6.63;;;2.67;;
47523;SDS011;33253;42.144;25.884;2023-04-23T14:44:32;8.48;;;3.22;;
47523;SDS011;33253;42.144;25.884;2023-04-23T14:46:58;6.72;;;3.17;;
47523;SDS011;33253;42.144;25.884;2023-04-23T14:49:23;6.53;;;2.80;;